Big Bear Lake, CA (92315)

4:20 AM PDT on September 03, 2015 (GMT -0700)
Big Bear Lake | | Change Station
CLOSE
Current Station
Personal Weather Station
Location: Big Bear Lake, CA
Elevation: 6923 ft
Nearby Weather Stations

Elev 6923 ft 34.24 °N, 116.90 °W | Updated 10 minutes ago

Clear
Clear
53.7 °F
Feels Like 53.7 °F
N
0.0
Wind Variable Wind from South

Today
High -- | Low -- °F
--% Chance of Precip.
Yesterday
High -- | Low -- °F
Precip. -- in
6:22 AM 7:11 PM
Waning Gibbous, 71% visible
Pressure 30.14 in
Visibility 10.0 miles
Clouds Clear
Dew Point 27 °F
Humidity 36%
Rainfall 0.00 in
Snow Depth Not available.
UV 0 out of 12
Pollen 7.80 out of 12
Air Quality Not available.
Flu Activity Not available.
METAR KL35 031115Z AUTO 00000KT 10SM CLR 10/M03 A3014 RMK AO2
Pressure 30.14 in
Visibility 10.0 miles
Clouds Clear
Dew Point 27 °F
Humidity 36%
Rainfall 0.00 in
Snow Depth Not available.
UV 0 out of 12
Pollen 7.80 out of 12
Air Quality Not available.
Flu Activity Not available.
METAR KL35 031115Z AUTO 00000KT 10SM CLR 10/M03 A3014 RMK AO2

10-Day Weather Forecast

×

Almanac

Astronomy

Sep. 03, 2015 Rise Set
Actual Time
Civil Twilight
Nautical Twilight
Astronomical Twilight
Moon
Length of Visible Light
Length of Day
Tomorrow will be .
, % of the Moon is Illuminated

Today's Extremes

State Highs State Lows

Community

WunderPhotos

Upload Photos

1,851,933 photos uploaded!

WunderBlogs® & News

Nearby

Air Quality

  Air Quality AQ Index Pollutant
Not available.

Snow Depth

Station Depth Elevation

Earthquake Activity

City Distance Mag. Time & Date
Minimum magnitude displayed is 2.5.

Coastal Water Temperatures

Place Temperature

Stations

Nearby Weather Stations

Station Location Temp. Windchill Dew Point Humidity Wind Precip. Elev Updated Type